createdAt,value
2019-05-10T00:02:40.826Z,17.02
2019-05-10T00:07:43.548Z,17.57
2019-05-10T00:12:46.275Z,17.82
2019-05-10T00:17:48.956Z,20.52
2019-05-10T00:22:51.755Z,22.20
2019-05-10T00:27:54.499Z,17.30
2019-05-10T00:32:57.258Z,15.48
2019-05-10T00:37:59.984Z,17.48
2019-05-10T00:43:02.954Z,15.32
2019-05-10T00:48:05.686Z,16.25
2019-05-10T00:53:08.432Z,15.23
2019-05-10T00:58:11.240Z,18.07
2019-05-10T01:03:13.911Z,20.80
2019-05-10T01:08:16.566Z,17.05
2019-05-10T01:13:19.227Z,21.40
2019-05-10T01:18:21.916Z,17.75
2019-05-10T01:23:24.629Z,21.25
2019-05-10T01:28:27.371Z,17.75
2019-05-10T01:33:30.044Z,21.02
2019-05-10T01:38:32.696Z,18.20
2019-05-10T01:43:35.364Z,19.45
2019-05-10T01:48:38.092Z,19.52
2019-05-10T01:54:00.164Z,21.80
2019-05-10T01:59:02.818Z,20.27
2019-05-10T02:04:05.479Z,18.37
2019-05-10T02:09:08.206Z,19.95
2019-05-10T02:14:13.769Z,22.95
2019-05-10T02:19:16.437Z,20.62
2019-05-10T02:24:19.108Z,20.12
2019-05-10T02:29:22.098Z,17.77
2019-05-10T02:34:24.866Z,19.05
2019-05-10T02:39:28.003Z,13.10
2019-05-10T02:44:30.726Z,19.73
2019-05-10T02:49:33.387Z,15.68
2019-05-10T02:54:36.123Z,20.05
2019-05-10T02:59:59.702Z,19.62
2019-05-10T03:05:03.411Z,15.20
2019-05-10T03:10:11.328Z,17.07
2019-05-10T03:15:35.208Z,24.52
2019-05-10T03:20:38.439Z,20.32
2019-05-10T03:25:41.314Z,20.77
2019-05-10T03:31:03.591Z,14.68
2019-05-10T03:36:27.168Z,18.37
2019-05-10T03:41:29.884Z,21.27
2019-05-10T03:46:32.561Z,21.00
2019-05-10T03:51:35.301Z,17.80
2019-05-10T03:56:38.034Z,21.12
2019-05-10T04:01:40.712Z,20.50
2019-05-10T04:06:43.451Z,16.65
2019-05-10T04:11:46.112Z,18.00
2019-05-10T04:16:48.843Z,17.05
2019-05-10T04:21:51.565Z,15.43
2019-05-10T04:26:54.238Z,18.80
2019-05-10T04:31:56.903Z,17.80
2019-05-10T04:36:59.655Z,14.98
2019-05-10T04:42:02.390Z,22.58
2019-05-10T04:47:05.117Z,21.17
2019-05-10T04:52:07.936Z,21.27
2019-05-10T04:57:10.588Z,15.35
2019-05-10T05:02:13.329Z,26.52
2019-05-10T05:07:16.052Z,15.38
2019-05-10T05:12:18.713Z,21.62
2019-05-10T05:17:21.378Z,21.10
2019-05-10T05:22:43.419Z,18.40
2019-05-10T05:27:46.154Z,15.43
2019-05-10T05:32:48.826Z,12.23
2019-05-10T05:37:51.500Z,15.40
2019-05-10T05:42:54.227Z,10.53
2019-05-10T05:47:57.253Z,15.20
2019-05-10T05:53:00.109Z,19.00
2019-05-10T05:58:04.715Z,14.00
2019-05-10T06:03:07.220Z,18.95
2019-05-10T06:08:21.459Z,21.93
2019-05-10T06:13:14.735Z,20.60
2019-05-10T06:18:17.466Z,24.02
2019-05-10T06:23:20.148Z,33.35
2019-05-10T06:28:58.234Z,30.35
2019-05-10T06:33:46.930Z,38.45
2019-05-10T06:38:49.708Z,35.90
2019-05-10T06:43:53.177Z,37.20
2019-05-10T06:49:07.145Z,36.40
2019-05-10T06:54:01.276Z,37.42
2019-05-10T06:59:12.776Z,43.65
2019-05-10T07:04:08.447Z,34.55
2019-05-10T07:09:11.437Z,33.18
2019-05-10T07:14:14.107Z,47.10
2019-05-10T07:19:16.817Z,31.60
2019-05-10T07:24:25.306Z,34.50
2019-05-10T07:29:30.190Z,34.95
2019-05-10T07:34:28.251Z,35.58
2019-05-10T07:39:41.644Z,29.63
2019-05-10T07:44:46.500Z,32.17
2019-05-10T07:49:45.942Z,24.95
2019-05-10T07:54:48.710Z,33.38
2019-05-10T07:59:51.548Z,23.52
2019-05-10T08:04:54.381Z,32.80
2019-05-10T08:10:18.625Z,33.80
2019-05-10T08:15:24.793Z,25.02
2019-05-10T08:20:38.087Z,25.30
2019-05-10T08:25:36.347Z,23.95
2019-05-10T08:30:51.732Z,20.08
2019-05-10T08:35:52.386Z,19.57
2019-05-10T08:40:52.690Z,22.80
2019-05-10T08:45:57.844Z,18.75
2019-05-10T08:51:04.057Z,19.57
2019-05-10T08:56:07.783Z,17.32
2019-05-10T09:01:20.597Z,17.15
2019-05-10T09:06:16.664Z,16.57
2019-05-10T09:11:17.891Z,15.78
2019-05-10T09:16:20.546Z,15.58
2019-05-10T09:21:23.208Z,13.28
2019-05-10T09:26:25.962Z,18.17
2019-05-10T09:31:28.722Z,16.05
2019-05-10T09:36:36.031Z,18.02
2019-05-10T09:41:38.242Z,17.48
2019-05-10T09:46:42.148Z,18.95
2019-05-10T09:51:44.555Z,13.05
2019-05-10T09:56:51.992Z,11.45
2019-05-10T10:01:51.666Z,6.03
2019-05-10T10:06:54.386Z,7.90
2019-05-10T10:12:01.678Z,4.28
2019-05-10T10:17:03.164Z,6.15
2019-05-10T10:22:11.040Z,13.65
2019-05-10T10:27:10.425Z,9.78
2019-05-10T10:32:13.170Z,8.68
2019-05-10T10:37:22.127Z,8.55
2019-05-10T10:42:20.548Z,11.97
2019-05-10T10:47:30.419Z,9.20
2019-05-10T10:52:27.866Z,9.48
2019-05-10T10:57:30.626Z,10.53
2019-05-10T11:02:34.267Z,9.60
2019-05-10T11:07:41.039Z,8.98
2019-05-10T11:12:41.512Z,8.63
2019-05-10T11:17:44.190Z,9.35
2019-05-10T11:22:49.706Z,15.18
2019-05-10T11:27:54.025Z,9.88
2019-05-10T11:32:55.682Z,8.90
2019-05-10T11:38:01.044Z,9.53
2019-05-10T11:43:02.839Z,8.25
2019-05-10T11:48:05.652Z,11.97
2019-05-10T11:53:13.372Z,9.48
2019-05-10T11:58:13.472Z,8.33
2019-05-10T12:08:22.319Z,16.23
2019-05-10T12:13:25.394Z,11.00
2019-05-10T12:18:32.390Z,9.00
2019-05-10T12:23:33.449Z,10.72
2019-05-10T12:26:04.972Z,13.00
2019-05-10T12:28:36.452Z,9.45
2019-05-10T12:33:42.119Z,10.63
2019-05-10T12:38:43.804Z,10.80
2019-05-10T12:43:48.573Z,17.05
2019-05-10T12:48:51.651Z,12.37
2019-05-10T12:53:54.484Z,11.65
2019-05-10T12:58:59.457Z,16.52
2019-05-10T13:04:02.259Z,13.72
2019-05-10T13:09:06.204Z,12.85
2019-05-10T13:14:09.688Z,10.75
2019-05-10T13:19:14.349Z,14.23
2019-05-10T13:24:17.052Z,11.50
2019-05-10T13:29:19.804Z,13.90
2019-05-10T13:34:24.476Z,16.23
2019-05-10T13:39:27.677Z,13.88
2019-05-10T13:44:30.492Z,17.12
2019-05-10T13:49:33.148Z,14.05
2019-05-10T13:54:36.577Z,14.40
2019-05-10T13:59:40.214Z,14.58
2019-05-10T14:04:42.968Z,15.93
2019-05-10T14:09:45.778Z,18.52
2019-05-10T14:14:48.534Z,14.50
2019-05-10T14:19:51.688Z,12.93
2019-05-10T14:24:58.891Z,15.30
2019-05-10T14:29:58.821Z,15.23
2019-05-10T14:35:01.614Z,12.78
2019-05-10T14:40:06.015Z,12.90
2019-05-10T14:45:08.882Z,11.03
2019-05-10T14:50:11.777Z,12.95
2019-05-10T14:55:14.513Z,11.35
2019-05-10T15:00:17.653Z,12.53
2019-05-10T15:05:20.750Z,13.80
2019-05-10T15:10:23.445Z,13.20
2019-05-10T15:15:31.030Z,12.68
2019-05-10T15:20:30.593Z,11.65
2019-05-10T15:25:33.374Z,11.78
2019-05-10T15:30:39.136Z,14.70
2019-05-10T15:35:45.816Z,14.90
2019-05-10T15:40:45.974Z,12.47
2019-05-10T15:45:52.350Z,12.65
2019-05-10T15:50:53.266Z,13.50
2019-05-10T15:55:58.974Z,11.20
2019-05-10T16:01:00.397Z,11.53
2019-05-10T16:06:03.212Z,11.18
2019-05-10T16:11:18.170Z,12.03
2019-05-10T16:16:10.369Z,11.70
2019-05-10T16:21:15.160Z,11.60
2019-05-10T16:26:22.711Z,13.03
2019-05-10T16:31:21.873Z,14.13
2019-05-10T16:36:28.536Z,11.40
2019-05-10T16:41:29.117Z,11.10
2019-05-10T16:46:31.787Z,11.00
2019-05-10T16:51:34.512Z,10.25
2019-05-10T16:56:39.146Z,10.93
2019-05-10T17:01:41.821Z,10.13
2019-05-10T17:06:44.547Z,10.05
2019-05-10T17:11:48.610Z,11.22
2019-05-10T17:16:58.401Z,10.13
2019-05-10T17:21:56.151Z,9.98
2019-05-10T17:26:58.879Z,9.28
2019-05-10T17:32:01.537Z,10.93
2019-05-10T17:37:04.546Z,11.08
2019-05-10T17:42:07.576Z,10.15
2019-05-10T17:47:10.334Z,12.43
2019-05-10T17:52:13.062Z,10.75
2019-05-10T17:57:16.587Z,13.25
2019-05-10T18:02:20.111Z,9.38
2019-05-10T18:07:22.773Z,11.97
2019-05-10T18:12:27.156Z,10.75
2019-05-10T18:17:30.259Z,8.68
2019-05-10T18:22:41.810Z,12.35
2019-05-10T18:27:37.474Z,11.35
2019-05-10T18:32:40.184Z,10.60
2019-05-10T18:37:43.634Z,11.60
2019-05-10T18:42:47.841Z,10.50
2019-05-10T18:47:50.584Z,9.55
2019-05-10T18:52:53.280Z,9.13
2019-05-10T18:57:56.004Z,11.00
2019-05-10T19:02:58.679Z,10.60
2019-05-10T19:08:05.381Z,11.20
2019-05-10T19:13:06.427Z,11.12
2019-05-10T19:18:09.434Z,10.82
2019-05-10T19:23:13.270Z,9.98
2019-05-10T19:28:20.933Z,10.72
2019-05-10T19:33:21.008Z,10.00
2019-05-10T19:38:23.748Z,10.85
2019-05-10T19:43:26.406Z,12.50
2019-05-10T19:48:35.102Z,10.38
2019-05-10T19:53:36.487Z,10.90
2019-05-10T19:58:38.303Z,12.40
2019-05-10T20:03:41.042Z,10.93
2019-05-10T20:08:44.340Z,9.48
2019-05-10T20:13:48.900Z,10.45
2019-05-10T20:18:51.619Z,13.95
2019-05-10T20:23:54.451Z,11.08
2019-05-10T20:28:57.188Z,10.78
2019-05-10T20:33:59.957Z,12.93
2019-05-10T20:39:03.090Z,10.60
2019-05-10T20:44:05.763Z,15.65
2019-05-10T20:49:08.562Z,14.80
2019-05-10T20:54:11.289Z,13.93
2019-05-10T20:59:14.016Z,15.68
2019-05-10T21:04:16.980Z,14.78
2019-05-10T21:09:20.166Z,13.32
2019-05-10T21:14:22.910Z,11.70
2019-05-10T21:19:25.652Z,15.13
2019-05-10T21:24:28.325Z,16.82
2019-05-10T21:29:31.399Z,15.80
2019-05-10T21:34:34.130Z,14.83
2019-05-10T21:39:36.831Z,17.05
2019-05-10T21:44:39.480Z,17.35
2019-05-10T21:49:42.173Z,13.83
2019-05-10T21:54:44.822Z,19.87
2019-05-10T21:59:47.485Z,16.23
2019-05-10T22:04:50.286Z,15.98
2019-05-10T22:09:53.011Z,16.02
2019-05-10T22:14:55.678Z,21.65
2019-05-10T22:19:58.408Z,17.87
2019-05-10T22:25:01.068Z,18.17
2019-05-10T22:30:06.116Z,17.52
2019-05-10T22:35:09.109Z,23.35
2019-05-10T22:40:11.938Z,17.05
2019-05-10T22:45:14.772Z,20.27
2019-05-10T22:50:17.933Z,21.07
2019-05-10T22:55:21.023Z,18.62
2019-05-10T23:00:24.033Z,19.42
2019-05-10T23:05:26.699Z,21.42
2019-05-10T23:10:29.430Z,22.60
2019-05-10T23:15:32.108Z,19.17
2019-05-10T23:20:34.774Z,22.10
2019-05-10T23:25:37.728Z,24.87
2019-05-10T23:30:40.454Z,28.45
2019-05-10T23:35:43.126Z,22.90
2019-05-10T23:40:45.781Z,23.67
2019-05-10T23:45:48.535Z,23.00
2019-05-10T23:50:51.199Z,19.48
2019-05-10T23:55:53.855Z,20.70
